Туризм
Свали.ру
Погода в мире
ИА "Метеоновости"
Информеры
для сайтов
Туры
поиск и заказ
Авиабилеты
регулярные и чартерные рейсы
 
    На главную   Табло рисков задержки   Авиабилеты   Расписание авиарейсов

Northwest Arkansas Regional Airport    ICAO или ID: KXNA, IATA: XNA
Небольшой аэропорт, регулярные рейсы
добавить в избранное


широта:
долгота:
высота над уровнем моря:
36°17'
-94°18'

392 м
Страна: США (United States)
погода
туры
отели
аэропорты
Риск задержки рейсов из-за погоды
Факт:  
Прогноз:  
 Карта
 



Текущее время 10:15 UTC 20-04-2024
Солнце: восход 11:37, заход 00:55, долгота дня 13:18

  10:00 (на 20ч) 12:00 (на 24ч) 18:00 (на 24ч) [06:00 (на 24ч)]

Прогноз погоды на 24 ч. с 06:00 20-04-2024 по 06:00 21-04-2024 UTC


Исходная телеграмма в коде TAF
KXNA 200536Z 2006/2106 02007KT P6SM OVC060
FM201500 05012KT P6SM BKN250
FM202100 02008KT P6SM OVC100

Раскодировка телеграмм производится в автоматическом режиме, в телеграммах могут содержаться ошибки, приводящие к их неправильной интерпретации.

Предупреждение: данные на этом сайте не могут быть использованы для планирования полётов и предоставляются только в информационных целях.
Найти аэропорт
По названию или городу
только регулярные рейсы

Избранные аэропорты
Список пуст



© 2008 Данио-Пресс. Все права защищены.
Использование материалов сайта возможно только с согласия администрации сервера.
По вопросам рекламы и размещения информации обращаться сюда.


 Рейтинг@Mail.ru  Rambler's Top100